createdAt,value
2018-08-04T00:01:22.364Z,23.50
2018-08-04T00:03:49.350Z,23.40
2018-08-04T00:06:16.750Z,23.30
2018-08-04T00:08:43.819Z,23.20
2018-08-04T00:11:11.655Z,23.10
2018-08-04T00:13:38.641Z,23.10
2018-08-04T00:16:05.688Z,23.00
2018-08-04T00:18:32.689Z,23.10
2018-08-04T00:20:59.677Z,23.10
2018-08-04T00:23:26.714Z,23.10
2018-08-04T00:25:54.663Z,23.10
2018-08-04T00:28:21.768Z,23.00
2018-08-04T00:30:49.345Z,23.00
2018-08-04T00:33:17.180Z,23.00
2018-08-04T00:35:44.525Z,23.00
2018-08-04T00:38:11.549Z,23.00
2018-08-04T00:40:38.542Z,22.90
2018-08-04T00:43:05.540Z,22.90
2018-08-04T00:45:32.613Z,23.00
2018-08-04T00:47:59.639Z,23.10
2018-08-04T00:50:26.952Z,23.10
2018-08-04T00:55:21.070Z,23.10
2018-08-04T00:57:48.090Z,23.00
2018-08-04T01:00:15.143Z,23.10
2018-08-04T01:02:42.146Z,23.10
2018-08-04T01:05:09.131Z,23.00
2018-08-04T01:07:36.207Z,23.00
2018-08-04T01:12:41.718Z,23.00
2018-08-04T01:15:09.213Z,23.00
2018-08-04T01:17:36.199Z,22.90
2018-08-04T01:20:03.283Z,23.10
2018-08-04T01:22:31.196Z,23.10
2018-08-04T01:24:58.290Z,23.00
2018-08-04T01:27:25.319Z,23.00
2018-08-04T01:29:52.530Z,22.90
2018-08-04T01:32:19.530Z,22.80
2018-08-04T01:34:46.601Z,22.90
2018-08-04T01:37:13.601Z,22.90
2018-08-04T01:39:40.589Z,22.90
2018-08-04T01:42:07.629Z,22.90
2018-08-04T01:44:34.619Z,22.80
2018-08-04T01:47:01.621Z,22.80
2018-08-04T01:49:29.353Z,22.80
2018-08-04T01:51:56.337Z,22.80
2018-08-04T01:54:23.329Z,22.80
2018-08-04T01:56:51.185Z,22.80
2018-08-04T01:59:18.172Z,22.80
2018-08-04T02:04:12.345Z,22.60
2018-08-04T02:06:39.336Z,22.60
2018-08-04T02:09:06.331Z,22.60
2018-08-04T02:11:33.396Z,22.60
2018-08-04T02:14:00.380Z,22.60
2018-08-04T02:16:27.382Z,22.60
2018-08-04T02:18:54.440Z,22.50
2018-08-04T02:26:27.044Z,22.40
2018-08-04T02:28:54.044Z,22.50
2018-08-04T02:31:21.842Z,22.30
2018-08-04T02:33:48.917Z,22.30
2018-08-04T02:36:15.932Z,22.30
2018-08-04T02:38:42.941Z,22.40
2018-08-04T02:41:09.988Z,22.40
2018-08-04T02:43:36.990Z,22.30
2018-08-04T02:46:03.979Z,22.20
2018-08-04T02:48:31.054Z,22.30
2018-08-04T02:50:58.893Z,22.20
2018-08-04T02:53:25.884Z,22.20
2018-08-04T02:58:20.081Z,21.90
2018-08-04T03:00:47.945Z,21.90
2018-08-04T03:05:42.132Z,22.00
2018-08-04T03:08:09.130Z,21.90
2018-08-04T03:10:36.751Z,21.90
2018-08-04T03:13:03.725Z,21.90
2018-08-04T03:15:30.726Z,21.90
2018-08-04T03:17:58.715Z,21.90
2018-08-04T03:20:25.715Z,21.90
2018-08-04T03:22:52.711Z,21.70
2018-08-04T03:25:19.751Z,21.70
2018-08-04T03:27:46.767Z,21.70
2018-08-04T03:30:13.777Z,21.70
2018-08-04T03:32:41.804Z,21.80
2018-08-04T03:35:08.806Z,21.80
2018-08-04T03:37:35.807Z,21.80
2018-08-04T03:42:41.321Z,21.60
2018-08-04T03:45:08.401Z,21.70
2018-08-04T03:47:35.428Z,21.70
2018-08-04T03:50:03.308Z,21.70
2018-08-04T03:52:30.352Z,21.70
2018-08-04T03:54:57.351Z,21.40
2018-08-04T03:57:24.357Z,21.50
2018-08-04T03:59:51.404Z,21.50
2018-08-04T04:02:18.398Z,21.40
2018-08-04T04:04:45.405Z,21.40
2018-08-04T04:07:12.475Z,21.40
2018-08-04T04:09:39.462Z,21.30
2018-08-04T04:19:27.860Z,21.40
2018-08-04T04:21:54.904Z,21.40
2018-08-04T04:24:21.890Z,21.30
2018-08-04T04:26:49.230Z,21.30
2018-08-04T04:29:16.221Z,21.20
2018-08-04T04:31:43.221Z,21.00
2018-08-04T04:34:10.224Z,21.00
2018-08-04T04:36:37.262Z,21.00
2018-08-04T04:41:44.822Z,21.10
2018-08-04T04:44:11.814Z,21.20
2018-08-04T04:49:05.925Z,21.40
2018-08-04T04:51:32.926Z,21.50
2018-08-04T04:53:59.929Z,21.60
2018-08-04T04:56:26.994Z,21.40
2018-08-04T04:58:53.996Z,21.30
2018-08-04T05:01:21.014Z,21.30
2018-08-04T05:03:48.063Z,21.40
2018-08-04T05:06:15.076Z,21.50
2018-08-04T05:08:42.107Z,21.60
2018-08-04T05:11:15.057Z,21.70
2018-08-04T05:18:36.370Z,21.90
2018-08-04T05:21:03.361Z,21.80
2018-08-04T05:23:30.374Z,21.60
2018-08-04T05:25:57.862Z,21.60
2018-08-04T05:28:24.876Z,21.50
2018-08-04T05:30:51.883Z,21.60
2018-08-04T05:33:18.955Z,21.80
2018-08-04T05:35:45.942Z,22.00
2018-08-04T05:38:12.993Z,22.10
2018-08-04T05:40:40.025Z,22.10
2018-08-04T05:45:45.550Z,22.20
2018-08-04T05:48:12.545Z,22.60
2018-08-04T05:50:39.543Z,22.50
2018-08-04T05:53:06.596Z,22.60
2018-08-04T05:55:33.649Z,22.90
2018-08-04T05:58:00.717Z,23.20
2018-08-04T06:02:54.809Z,23.60
2018-08-04T06:05:21.799Z,23.60
2018-08-04T06:07:48.834Z,23.50
2018-08-04T06:10:15.838Z,23.60
2018-08-04T06:15:10.847Z,23.20
2018-08-04T06:17:37.836Z,23.50
2018-08-04T06:20:05.748Z,23.50
2018-08-04T06:22:32.749Z,23.40
2018-08-04T06:24:59.739Z,23.40
2018-08-04T06:27:26.734Z,23.50
2018-08-04T06:29:54.734Z,23.70
2018-08-04T06:32:21.730Z,24.00
2018-08-04T06:34:48.725Z,24.10
2018-08-04T06:37:15.760Z,24.40
2018-08-04T06:39:42.738Z,24.10
2018-08-04T06:42:09.736Z,24.50
2018-08-04T06:44:36.806Z,24.70
2018-08-04T06:47:03.802Z,24.80
2018-08-04T06:49:30.792Z,25.00
2018-08-04T06:51:57.964Z,24.70
2018-08-04T06:56:52.044Z,25.60
2018-08-04T07:01:57.563Z,25.60
2018-08-04T07:04:24.750Z,25.80
2018-08-04T07:06:51.738Z,26.00
2018-08-04T07:09:18.729Z,25.90
2018-08-04T07:11:45.758Z,25.80
2018-08-04T07:14:12.746Z,26.20
2018-08-04T07:16:39.736Z,26.50
2018-08-04T07:19:06.765Z,26.70
2018-08-04T07:21:33.773Z,26.60
2018-08-04T07:24:00.753Z,25.80
2018-08-04T07:26:27.842Z,25.90
2018-08-04T07:28:54.864Z,26.00
2018-08-04T07:31:21.823Z,26.50
2018-08-04T07:33:49.767Z,26.50
2018-08-04T07:36:16.745Z,26.50
2018-08-04T07:38:43.732Z,26.50
2018-08-04T07:41:11.494Z,26.70
2018-08-04T07:43:38.491Z,27.20
2018-08-04T07:46:05.482Z,27.60
2018-08-04T07:48:32.517Z,27.60
2018-08-04T07:53:26.579Z,27.90
2018-08-04T07:55:53.602Z,27.80
2018-08-04T07:58:20.600Z,28.10
2018-08-04T08:00:47.603Z,28.30
2018-08-04T08:03:14.631Z,28.50
2018-08-04T08:05:42.586Z,28.20
2018-08-04T08:08:09.575Z,28.50
2018-08-04T08:10:36.668Z,28.80
2018-08-04T08:13:03.597Z,28.80
2018-08-04T08:15:30.595Z,29.10
2018-08-04T08:17:57.630Z,29.30
2018-08-04T08:23:04.091Z,29.80
2018-08-04T08:25:31.021Z,29.80
2018-08-04T08:27:58.005Z,30.10
2018-08-04T08:30:25.040Z,30.10
2018-08-04T08:32:52.116Z,30.10
2018-08-04T08:35:19.044Z,29.90
2018-08-04T08:37:46.253Z,29.80
2018-08-04T08:40:13.275Z,30.20
2018-08-04T08:42:40.261Z,30.50
2018-08-04T08:45:07.321Z,30.10
2018-08-04T08:47:34.311Z,30.50
2018-08-04T08:50:02.253Z,30.70
2018-08-04T08:52:29.323Z,30.70
2018-08-04T08:54:56.333Z,30.80
2018-08-04T08:57:23.328Z,30.70
2018-08-04T08:59:50.379Z,30.80
2018-08-04T09:02:17.414Z,30.70
2018-08-04T09:07:12.386Z,30.70
2018-08-04T09:09:39.384Z,30.90
2018-08-04T09:12:07.099Z,31.20
2018-08-04T09:14:34.146Z,30.50
2018-08-04T09:17:01.156Z,30.80
2018-08-04T09:19:28.157Z,31.40
2018-08-04T09:21:55.211Z,31.60
2018-08-04T09:24:22.206Z,31.80
2018-08-04T09:26:49.206Z,31.60
2018-08-04T09:31:43.376Z,32.40
2018-08-04T09:34:11.321Z,32.40
2018-08-04T09:36:38.365Z,32.60
2018-08-04T09:41:43.896Z,32.60
2018-08-04T09:44:10.889Z,32.70
2018-08-04T09:46:37.901Z,32.90
2018-08-04T09:49:04.940Z,32.80
2018-08-04T09:51:31.950Z,32.30
2018-08-04T09:53:58.953Z,32.60
2018-08-04T09:56:26.840Z,32.50
2018-08-04T09:58:53.848Z,32.80
2018-08-04T10:01:20.846Z,33.10
2018-08-04T10:03:47.886Z,33.00
2018-08-04T10:06:14.884Z,32.70
2018-08-04T10:08:41.920Z,33.30
2018-08-04T10:11:08.995Z,33.10
2018-08-04T10:13:36.000Z,32.50
2018-08-04T10:16:02.990Z,33.20
2018-08-04T10:18:30.031Z,32.70
2018-08-04T10:20:57.025Z,33.20
2018-08-04T10:23:24.954Z,32.60
2018-08-04T10:25:52.024Z,32.70
2018-08-04T10:28:19.742Z,32.80
2018-08-04T10:30:46.739Z,33.40
2018-08-04T10:35:40.906Z,33.20
2018-08-04T10:38:07.844Z,32.90
2018-08-04T10:40:34.920Z,33.90
2018-08-04T10:43:01.922Z,34.40
2018-08-04T10:45:28.908Z,33.90
2018-08-04T10:47:55.941Z,33.90
2018-08-04T10:50:22.936Z,33.90
2018-08-04T10:52:49.935Z,33.80
2018-08-04T10:55:17.008Z,33.00
2018-08-04T11:00:25.365Z,33.20
2018-08-04T11:02:52.352Z,33.50
2018-08-04T11:05:19.340Z,33.30
2018-08-04T11:07:47.256Z,33.00
2018-08-04T11:10:15.190Z,33.80
2018-08-04T11:12:42.184Z,34.70
2018-08-04T11:15:09.245Z,33.90
2018-08-04T11:20:04.136Z,35.30
2018-08-04T11:27:26.196Z,35.00
2018-08-04T11:34:47.406Z,33.40
2018-08-04T11:37:14.433Z,33.20
2018-08-04T11:39:41.424Z,33.10
2018-08-04T11:42:08.400Z,32.80
2018-08-04T11:44:35.475Z,32.90
2018-08-04T11:47:03.283Z,32.60
2018-08-04T11:49:31.109Z,32.40
2018-08-04T11:51:58.136Z,32.10
2018-08-04T11:54:25.127Z,32.30
2018-08-04T11:59:19.301Z,32.10
2018-08-04T12:01:47.264Z,32.10
2018-08-04T12:04:14.256Z,32.00
2018-08-04T12:06:42.273Z,32.40
2018-08-04T12:09:10.212Z,32.50
2018-08-04T12:11:37.203Z,32.40
2018-08-04T12:14:04.279Z,32.30
2018-08-04T12:16:32.217Z,32.60
2018-08-04T12:21:27.197Z,32.20
2018-08-04T12:26:34.740Z,32.40
2018-08-04T12:29:02.539Z,32.60
2018-08-04T12:31:29.576Z,32.90
2018-08-04T12:33:57.526Z,32.70
2018-08-04T12:36:24.514Z,33.00
2018-08-04T12:38:52.476Z,32.90
2018-08-04T12:41:20.315Z,32.60
2018-08-04T12:43:47.315Z,32.80
2018-08-04T12:46:14.321Z,32.80
2018-08-04T12:48:41.394Z,32.70
2018-08-04T12:51:08.388Z,32.30
2018-08-04T12:53:35.390Z,32.50
2018-08-04T12:56:02.437Z,32.70
2018-08-04T12:58:29.494Z,33.00
2018-08-04T13:00:56.459Z,32.90
2018-08-04T13:03:23.529Z,32.40
2018-08-04T13:05:50.513Z,32.30
2018-08-04T13:08:17.494Z,32.70
2018-08-04T13:10:44.547Z,32.70
2018-08-04T13:15:38.620Z,32.50
2018-08-04T13:18:05.681Z,32.20
2018-08-04T13:23:00.596Z,32.00
2018-08-04T13:27:54.710Z,32.10
2018-08-04T13:30:21.720Z,32.10
2018-08-04T13:32:48.797Z,32.00
2018-08-04T13:35:15.784Z,32.00
2018-08-04T13:37:42.831Z,32.10
2018-08-04T13:40:09.863Z,32.10
2018-08-04T13:45:18.344Z,32.00
2018-08-04T13:47:45.324Z,32.10
2018-08-04T13:50:13.288Z,32.00
2018-08-04T13:52:41.241Z,31.60
2018-08-04T13:55:08.254Z,31.40
2018-08-04T13:57:35.261Z,31.40
2018-08-04T14:00:02.343Z,31.70
2018-08-04T14:02:29.324Z,31.60
2018-08-04T14:04:56.309Z,31.60
2018-08-04T14:07:24.079Z,31.30
2018-08-04T14:09:51.079Z,31.40
2018-08-04T14:12:18.080Z,31.70
2018-08-04T14:14:45.149Z,31.70
2018-08-04T14:19:39.240Z,31.20
2018-08-04T14:22:06.273Z,31.00
2018-08-04T14:27:01.224Z,30.80
2018-08-04T14:29:28.288Z,30.50
2018-08-04T14:31:55.276Z,30.80
2018-08-04T14:34:22.277Z,30.90
2018-08-04T14:36:49.319Z,30.90
2018-08-04T14:39:17.044Z,30.90
2018-08-04T14:41:44.037Z,30.70
2018-08-04T14:44:11.099Z,30.70
2018-08-04T14:46:38.090Z,30.70
2018-08-04T14:49:05.089Z,30.80
2018-08-04T14:51:32.131Z,30.00
2018-08-04T14:53:59.119Z,29.80
2018-08-04T14:56:26.111Z,29.20
2018-08-04T14:58:53.180Z,29.30
2018-08-04T15:03:58.696Z,29.30
2018-08-04T15:06:26.545Z,29.50
2018-08-04T15:08:53.568Z,29.70
2018-08-04T15:11:20.638Z,29.90
2018-08-04T15:13:48.617Z,29.80
2018-08-04T15:16:15.624Z,30.00
2018-08-04T15:18:42.694Z,30.00
2018-08-04T15:21:09.713Z,29.70
2018-08-04T15:23:36.807Z,29.70
2018-08-04T15:26:04.724Z,29.40
2018-08-04T15:30:59.531Z,29.30
2018-08-04T15:33:27.217Z,29.40
2018-08-04T15:38:33.131Z,29.10
2018-08-04T15:41:00.162Z,29.00
2018-08-04T15:43:27.173Z,29.10
2018-08-04T15:45:54.218Z,29.50
2018-08-04T15:48:21.219Z,29.70
2018-08-04T15:50:48.234Z,30.00
2018-08-04T15:53:15.813Z,30.10
2018-08-04T15:55:42.891Z,30.30
2018-08-04T15:58:09.892Z,30.40
2018-08-04T16:00:36.935Z,30.30
2018-08-04T16:03:03.919Z,30.20
2018-08-04T16:05:30.925Z,30.10
2018-08-04T16:07:57.997Z,30.10
2018-08-04T16:10:25.948Z,30.30
2018-08-04T16:12:52.952Z,30.40
2018-08-04T16:15:20.859Z,30.60
2018-08-04T16:17:47.856Z,30.60
2018-08-04T16:20:14.840Z,30.60
2018-08-04T16:22:41.929Z,30.80
2018-08-04T16:25:08.884Z,30.90
2018-08-04T16:30:03.032Z,30.90
2018-08-04T16:32:30.089Z,30.80
2018-08-04T16:34:57.882Z,30.60
2018-08-04T16:37:25.096Z,30.70
2018-08-04T16:39:51.952Z,30.70
2018-08-04T16:42:19.817Z,30.80
2018-08-04T16:44:46.851Z,30.90
2018-08-04T16:47:14.718Z,30.90
2018-08-04T16:49:41.727Z,31.00
2018-08-04T16:52:08.870Z,31.00
2018-08-04T16:54:36.567Z,30.90
2018-08-04T16:57:04.356Z,31.00
2018-08-04T16:59:31.701Z,30.90
2018-08-04T17:07:05.662Z,31.00
2018-08-04T17:09:32.677Z,31.00
2018-08-04T17:11:59.716Z,31.00
2018-08-04T17:14:26.736Z,30.70
2018-08-04T17:16:54.638Z,30.50
2018-08-04T17:19:21.696Z,30.40
2018-08-04T17:21:48.692Z,30.50
2018-08-04T17:24:15.691Z,30.50
2018-08-04T17:26:42.722Z,30.50
2018-08-04T17:29:09.744Z,30.50
2018-08-04T17:31:36.735Z,30.50
2018-08-04T17:34:03.802Z,30.50
2018-08-04T17:36:30.847Z,30.40
2018-08-04T17:38:58.805Z,30.30
2018-08-04T17:41:25.854Z,30.40
2018-08-04T17:43:52.843Z,30.40
2018-08-04T17:46:19.826Z,30.30
2018-08-04T17:51:13.990Z,30.40
2018-08-04T17:53:40.992Z,30.40
2018-08-04T17:56:08.030Z,30.30
2018-08-04T17:58:35.018Z,30.30
2018-08-04T18:01:02.006Z,30.30
2018-08-04T18:03:29.084Z,30.20
2018-08-04T18:05:56.070Z,30.20
2018-08-04T18:08:23.058Z,30.20
2018-08-04T18:10:50.101Z,30.00
2018-08-04T18:13:17.096Z,29.70
2018-08-04T18:15:44.094Z,29.50
2018-08-04T18:18:11.157Z,29.10
2018-08-04T18:20:38.155Z,28.70
2018-08-04T18:25:44.463Z,29.00
2018-08-04T18:28:11.467Z,29.20
2018-08-04T18:30:38.470Z,29.10
2018-08-04T18:33:05.548Z,28.90
2018-08-04T18:38:00.546Z,28.70
2018-08-04T18:40:27.539Z,28.60
2018-08-04T18:42:55.438Z,28.50
2018-08-04T18:45:22.448Z,28.40
2018-08-04T18:50:16.620Z,28.20
2018-08-04T18:52:43.620Z,28.10
2018-08-04T18:55:10.660Z,28.10
2018-08-04T18:57:37.655Z,28.10
2018-08-04T19:00:04.644Z,27.90
2018-08-04T19:02:31.708Z,28.00
2018-08-04T19:04:58.694Z,28.10
2018-08-04T19:10:04.614Z,28.10
2018-08-04T19:12:31.644Z,28.20
2018-08-04T19:14:58.614Z,28.20
2018-08-04T19:17:25.689Z,28.30
2018-08-04T19:19:52.701Z,28.10
2018-08-04T19:22:19.810Z,27.70
2018-08-04T19:24:46.766Z,27.60
2018-08-04T19:27:13.936Z,27.70
2018-08-04T19:29:40.931Z,27.70
2018-08-04T19:34:35.067Z,27.80
2018-08-04T19:37:02.070Z,27.60
2018-08-04T19:44:23.873Z,27.60
2018-08-04T19:46:50.958Z,27.50
2018-08-04T19:49:17.989Z,27.40
2018-08-04T19:51:45.023Z,27.40
2018-08-04T19:54:12.147Z,27.40
2018-08-04T19:59:25.686Z,27.10
2018-08-04T20:01:52.717Z,27.00
2018-08-04T20:04:19.710Z,27.20
2018-08-04T20:06:47.108Z,27.10
2018-08-04T20:09:14.168Z,27.10
2018-08-04T20:11:41.168Z,26.90
2018-08-04T20:14:09.168Z,26.90
2018-08-04T20:16:36.214Z,26.90
2018-08-04T20:19:03.214Z,26.70
2018-08-04T20:21:30.220Z,26.50
2018-08-04T20:23:57.296Z,26.60
2018-08-04T20:26:25.241Z,26.60
2018-08-04T20:28:52.241Z,26.70
2018-08-04T20:31:19.331Z,26.70
2018-08-04T20:33:46.351Z,26.80
2018-08-04T20:36:13.352Z,26.60
2018-08-04T20:38:40.413Z,26.60
2018-08-04T20:41:07.505Z,26.60
2018-08-04T20:43:34.502Z,26.60
2018-08-04T20:46:01.567Z,26.40
2018-08-04T20:48:28.622Z,26.10
2018-08-04T20:50:55.608Z,26.00
2018-08-04T20:53:22.611Z,26.10
2018-08-04T20:55:49.682Z,26.10
2018-08-04T20:58:17.574Z,26.30
2018-08-04T21:03:23.388Z,25.70
2018-08-04T21:05:50.390Z,25.70
2018-08-04T21:08:17.389Z,25.50
2018-08-04T21:10:44.463Z,25.40
2018-08-04T21:13:11.455Z,25.30
2018-08-04T21:15:38.476Z,25.30
2018-08-04T21:18:05.567Z,25.30
2018-08-04T21:25:27.155Z,25.00
2018-08-04T21:27:54.175Z,25.10
2018-08-04T21:30:21.193Z,25.10
2018-08-04T21:32:48.279Z,24.70
2018-08-04T21:35:15.378Z,24.30
2018-08-04T21:37:42.401Z,24.30
2018-08-04T21:40:09.445Z,24.30
2018-08-04T21:42:36.445Z,24.20
2018-08-04T21:45:03.448Z,24.00
2018-08-04T21:47:30.542Z,24.00
2018-08-04T21:49:57.559Z,24.00
2018-08-04T21:54:51.850Z,24.10
2018-08-04T21:57:19.725Z,24.30
2018-08-04T21:59:46.740Z,24.20
2018-08-04T22:02:13.831Z,24.20
2018-08-04T22:04:40.863Z,24.10
2018-08-04T22:09:46.452Z,24.10
2018-08-04T22:12:13.465Z,24.20
2018-08-04T22:14:40.488Z,24.30
2018-08-04T22:17:08.266Z,24.30
2018-08-04T22:19:36.278Z,24.40
2018-08-04T22:22:04.131Z,24.40
2018-08-04T22:24:31.183Z,24.30
2018-08-04T22:26:59.019Z,24.40
2018-08-04T22:29:27.534Z,24.40
2018-08-04T22:31:54.608Z,24.40
2018-08-04T22:34:22.497Z,24.50
2018-08-04T22:36:49.498Z,24.50
2018-08-04T22:39:17.534Z,24.50
2018-08-04T22:41:44.614Z,24.40
2018-08-04T22:44:11.640Z,24.40
2018-08-04T22:46:38.738Z,24.20
2018-08-04T22:49:06.566Z,24.20
2018-08-04T22:51:33.605Z,24.10
2018-08-04T22:54:00.652Z,24.20
2018-08-04T22:56:28.494Z,24.20
2018-08-04T22:58:55.508Z,24.10
2018-08-04T23:01:23.087Z,24.00
2018-08-04T23:03:49.991Z,24.00
2018-08-04T23:06:17.151Z,24.10
2018-08-04T23:08:44.224Z,24.10
2018-08-04T23:11:11.247Z,24.20
2018-08-04T23:13:38.277Z,24.10
2018-08-04T23:16:05.359Z,24.00
2018-08-04T23:18:32.482Z,24.00
2018-08-04T23:20:59.530Z,24.00
2018-08-04T23:23:26.597Z,24.10
2018-08-04T23:25:53.619Z,24.10
2018-08-04T23:30:59.226Z,23.80
2018-08-04T23:35:53.356Z,23.80
2018-08-04T23:38:20.438Z,23.90
2018-08-04T23:40:47.430Z,23.80
2018-08-04T23:43:14.511Z,23.70
2018-08-04T23:45:41.572Z,23.60
2018-08-04T23:48:08.607Z,23.60
2018-08-04T23:50:35.616Z,23.50
2018-08-04T23:53:02.708Z,23.60
2018-08-04T23:55:30.533Z,23.60
2018-08-04T23:57:57.543Z,23.50
